Tinton Falls, NJ

10:52 AM EST on Novembru 26, 2014 (GMT -0500)
Red Bank | Change Station
CLOSE
Current Station
Personal Weather Stations
Location: Red Bank, NJ
Elevation: 56 ft
Nearby Weather Stations

Elev 56 ft 40.35 °N, 74.06 °W | Updated 3 minutes ago

silg
silg
37.2 °F
Feels Like 33 °F
N
5.8
rih varjabbli rih from Majistral

Illum
High -- | Low -- °F
--% Chance of Precip.
Yesterday
High -- | Low -- °F
Precip. -- in
6:54 AM 4:32 PM
Waxing Crescent, 20% visible
pressjoni 30.08 in
vizibilita 4.0 mili
s imsahhab hafna 600 ft
imsahhab 1400 ft
kesha tar-rih 33 °F
punt ta' nida 35 °F
umdita 91%
Rainfall 0.38 in
Snow Depth Not available.
UV 1 out of 12
Pollen .10 out of 12
Air Quality Not available.
Flu Activity Not available.
METAR KBLM 261535Z AUTO 36013G16KT 4SM BKN006 OVC014 04/00 A3008 RMK AO1 P0009

More Conditions Fewer Conditions

pressjoni 30.08 in
vizibilita 4.0 mili
s imsahhab hafna 600 ft
imsahhab 1400 ft
kesha tar-rih 33 °F
punt ta' nida 35 °F
umdita 91%
Rainfall 0.38 in
Snow Depth Not available.
UV 1 out of 12
Pollen .10 out of 12
Air Quality Not available.
Flu Activity Not available.
METAR KBLM 261535Z AUTO 36013G16KT 4SM BKN006 OVC014 04/00 A3008 RMK AO1 P0009

More Conditions Fewer Conditions

Nowcast | as of 10:22 am EST on November 26, 2014

Light to moderate rain will continue across the area through the morning hours, with periods of heavier rain possible. Some snow or sleet may mix in as well. Temperatures in the upper 30s to lower 40s now are expected to drop into the mid to upper 30s through the morning hours. Northeast winds around 10 to 15 mph with gusts around 20 mph will continue as well. Drivers are urged to use caution and be alert for changing weather conditions and roadway conditions.

×

10-Day Weather Forecast

Almanac

Astronomy

Nov. 26, 2014 Rise Set
Actual Time
Civil Twilight
Nautical Twilight
Astronomical Twilight
Moon
Length Of Visible Light
Length of Day
Tomorrow will be .
, % of the Moon is Illuminated

Today's Extremes

State Highs State Lows

Community

WunderPhotos

Upload Photos

1,773,773 photos uploaded!

WunderBlogs® & News

Nearby

Air Quality

  Air Quality AQ Index Pollutant
Not available.

Snow Depth

Station Depth Elevation

Earthquake Activity

City Distance Mag. Time & Date
Minimum magnitude displayed is 2.5.

Coastal Water Temperatures

Post temperatura

Nearby Weather Stations